createdAt,value
2023-03-19T00:01:14.374Z,10.98
2023-03-19T00:03:43.023Z,10.98
2023-03-19T00:06:12.132Z,10.99
2023-03-19T00:08:41.956Z,11.03
2023-03-19T00:11:15.050Z,11.03
2023-03-19T00:13:43.274Z,11.05
2023-03-19T00:16:11.852Z,11.06
2023-03-19T00:18:40.589Z,11.09
2023-03-19T00:21:09.701Z,11.09
2023-03-19T00:23:38.218Z,11.09
2023-03-19T00:26:06.689Z,11.13
2023-03-19T00:28:35.596Z,11.13
2023-03-19T00:31:17.212Z,11.13
2023-03-19T00:33:46.501Z,11.13
2023-03-19T00:36:16.433Z,11.11
2023-03-19T00:38:46.701Z,11.10
2023-03-19T00:41:15.500Z,11.09
2023-03-19T00:43:43.925Z,11.05
2023-03-19T00:46:12.465Z,11.06
2023-03-19T00:48:40.621Z,11.07
2023-03-19T00:51:11.549Z,11.08
2023-03-19T00:53:44.775Z,11.09
2023-03-19T00:56:15.449Z,11.11
2023-03-19T00:58:43.981Z,11.12
2023-03-19T01:01:14.698Z,11.14
2023-03-19T01:03:42.968Z,11.17
2023-03-19T01:06:11.628Z,11.20
2023-03-19T01:08:40.582Z,11.21
2023-03-19T01:11:17.118Z,11.22
2023-03-19T01:13:45.620Z,11.21
2023-03-19T01:16:14.259Z,11.22
2023-03-19T01:18:42.361Z,11.22
2023-03-19T01:21:10.752Z,11.25
2023-03-19T01:23:39.216Z,11.26
2023-03-19T01:26:08.656Z,11.23
2023-03-19T01:28:37.321Z,11.23
2023-03-19T01:31:09.982Z,11.22
2023-03-19T01:33:39.315Z,11.22
2023-03-19T01:36:08.718Z,11.21
2023-03-19T01:38:37.258Z,11.19
2023-03-19T01:41:05.593Z,11.19
2023-03-19T01:43:34.263Z,11.17
2023-03-19T01:46:41.259Z,11.14
2023-03-19T01:49:11.900Z,11.14
2023-03-19T01:51:43.336Z,11.13
2023-03-19T01:54:17.083Z,11.11
2023-03-19T01:56:48.463Z,11.10
2023-03-19T01:59:24.098Z,11.08
2023-03-19T02:02:03.872Z,11.05
2023-03-19T02:04:34.135Z,11.01
2023-03-19T02:07:03.765Z,11.01
2023-03-19T02:09:32.818Z,10.99
2023-03-19T02:12:02.890Z,10.97
2023-03-19T02:14:31.573Z,10.96
2023-03-19T02:17:00.122Z,10.95
2023-03-19T02:19:55.875Z,10.96
2023-03-19T02:22:28.404Z,10.96
2023-03-19T02:25:14.021Z,10.97
2023-03-19T02:27:43.002Z,10.97
2023-03-19T02:30:41.217Z,10.95
2023-03-19T02:33:16.126Z,10.94
2023-03-19T02:35:47.517Z,10.94
2023-03-19T02:38:16.601Z,10.93
2023-03-19T02:41:00.275Z,10.89
2023-03-19T02:43:29.732Z,10.87
2023-03-19T02:45:58.312Z,10.85
2023-03-19T02:48:26.837Z,10.85
2023-03-19T02:50:55.655Z,10.86
2023-03-19T02:53:24.179Z,10.84
2023-03-19T02:55:52.669Z,10.86
2023-03-19T02:58:21.342Z,10.87
2023-03-19T03:00:49.853Z,10.85
2023-03-19T03:03:18.462Z,10.86
2023-03-19T03:05:47.075Z,10.85
2023-03-19T03:08:15.999Z,10.87
2023-03-19T03:10:44.497Z,10.86
2023-03-19T03:13:12.605Z,10.87
2023-03-19T03:15:41.726Z,10.87
2023-03-19T03:18:10.312Z,10.89
2023-03-19T03:20:38.863Z,10.88
2023-03-19T03:23:07.485Z,10.87
2023-03-19T03:25:36.464Z,10.86
2023-03-19T03:28:04.982Z,10.86
2023-03-19T03:30:33.353Z,10.83
2023-03-19T03:33:01.732Z,10.83
2023-03-19T03:35:30.264Z,10.83
2023-03-19T03:37:59.186Z,10.83
2023-03-19T03:40:27.733Z,10.84
2023-03-19T03:42:55.913Z,10.86
2023-03-19T03:45:24.077Z,10.87
2023-03-19T03:47:52.728Z,10.87
2023-03-19T03:50:21.206Z,10.90
2023-03-19T03:52:49.944Z,10.90
2023-03-19T03:55:18.122Z,10.91
2023-03-19T03:57:46.781Z,10.90
2023-03-19T04:00:15.665Z,10.92
2023-03-19T04:02:44.146Z,10.93
2023-03-19T04:05:12.687Z,10.92
2023-03-19T04:07:41.335Z,10.92
2023-03-19T04:10:10.949Z,10.93
2023-03-19T04:12:39.962Z,10.92
2023-03-19T04:15:10.955Z,10.92
2023-03-19T04:17:40.470Z,10.93
2023-03-19T04:20:09.410Z,10.90
2023-03-19T04:22:37.823Z,10.90
2023-03-19T04:25:08.280Z,10.90
2023-03-19T04:27:36.925Z,10.90
2023-03-19T04:30:06.128Z,10.90
2023-03-19T04:32:35.780Z,10.88
2023-03-19T04:35:04.522Z,10.84
2023-03-19T04:37:33.070Z,10.82
2023-03-19T04:40:01.197Z,10.79
2023-03-19T04:42:29.372Z,10.75
2023-03-19T04:44:58.186Z,10.71
2023-03-19T04:47:26.316Z,10.66
2023-03-19T04:49:54.789Z,10.63
2023-03-19T04:52:22.828Z,10.56
2023-03-19T04:54:50.949Z,10.47
2023-03-19T04:57:19.443Z,10.40
2023-03-19T04:59:47.883Z,10.33
2023-03-19T05:02:15.977Z,10.29
2023-03-19T05:04:44.206Z,10.23
2023-03-19T05:07:13.564Z,10.17
2023-03-19T05:09:43.174Z,10.12
2023-03-19T05:12:12.787Z,10.07
2023-03-19T05:14:40.976Z,10.05
2023-03-19T05:17:11.194Z,10.00
2023-03-19T05:19:42.851Z,9.95
2023-03-19T05:22:11.560Z,9.89
2023-03-19T05:24:40.074Z,9.87
2023-03-19T05:27:08.513Z,9.81
2023-03-19T05:29:40.454Z,9.79
2023-03-19T05:32:10.383Z,9.77
2023-03-19T05:34:39.102Z,9.76
2023-03-19T05:37:08.699Z,9.75
2023-03-19T05:39:37.277Z,9.75
2023-03-19T05:42:09.769Z,9.77
2023-03-19T05:44:38.440Z,9.79
2023-03-19T05:47:07.073Z,9.79
2023-03-19T05:49:35.648Z,9.80
2023-03-19T05:52:04.111Z,9.82
2023-03-19T05:54:32.642Z,9.80
2023-03-19T05:57:01.456Z,9.82
2023-03-19T05:59:30.210Z,9.85
2023-03-19T06:01:58.633Z,9.86
2023-03-19T06:04:31.208Z,9.89
2023-03-19T06:06:59.733Z,9.92
2023-03-19T06:09:28.342Z,9.98
2023-03-19T06:11:59.235Z,10.02
2023-03-19T06:14:27.919Z,10.08
2023-03-19T06:16:57.811Z,10.14
2023-03-19T06:19:26.519Z,10.18
2023-03-19T06:21:55.042Z,10.23
2023-03-19T06:24:23.463Z,10.31
2023-03-19T06:26:51.596Z,10.36
2023-03-19T06:29:19.745Z,10.45
2023-03-19T06:31:48.756Z,10.54
2023-03-19T06:34:17.328Z,10.62
2023-03-19T06:36:45.986Z,10.72
2023-03-19T06:39:14.421Z,10.80
2023-03-19T06:41:43.082Z,10.90
2023-03-19T06:44:11.729Z,10.99
2023-03-19T06:46:40.666Z,11.09
2023-03-19T06:49:09.105Z,11.16
2023-03-19T06:51:37.833Z,11.20
2023-03-19T06:54:06.654Z,11.23
2023-03-19T06:56:34.939Z,11.27
2023-03-19T06:59:03.443Z,11.32
2023-03-19T07:01:32.085Z,11.32
2023-03-19T07:04:00.830Z,11.37
2023-03-19T07:06:30.125Z,11.41
2023-03-19T07:08:58.867Z,11.47
2023-03-19T07:11:27.426Z,11.54
2023-03-19T07:13:55.959Z,11.62
2023-03-19T07:16:24.544Z,11.71
2023-03-19T07:18:52.962Z,11.80
2023-03-19T07:21:21.658Z,11.90
2023-03-19T07:23:50.777Z,11.98
2023-03-19T07:26:19.874Z,12.03
2023-03-19T07:28:50.000Z,12.09
2023-03-19T07:31:18.659Z,12.12
2023-03-19T07:33:46.813Z,12.18
2023-03-19T07:36:15.220Z,12.22
2023-03-19T07:38:43.500Z,12.29
2023-03-19T07:41:11.944Z,12.37
2023-03-19T07:43:40.662Z,12.45
2023-03-19T07:46:09.207Z,12.54
2023-03-19T07:48:37.521Z,12.63
2023-03-19T07:51:08.322Z,12.70
2023-03-19T07:53:38.676Z,12.78
2023-03-19T07:56:07.660Z,12.84
2023-03-19T07:58:36.077Z,12.89
2023-03-19T08:01:04.664Z,12.91
2023-03-19T08:03:33.155Z,12.92
2023-03-19T08:06:01.951Z,12.94
2023-03-19T08:08:35.052Z,12.94
2023-03-19T08:11:04.409Z,12.97
2023-03-19T08:13:32.864Z,13.02
2023-03-19T08:16:01.475Z,13.06
2023-03-19T08:18:30.006Z,13.15
2023-03-19T08:20:58.286Z,13.24
2023-03-19T08:23:27.236Z,13.35
2023-03-19T08:25:57.194Z,13.47
2023-03-19T08:28:25.983Z,13.58
2023-03-19T08:30:55.839Z,13.71
2023-03-19T08:33:27.350Z,13.86
2023-03-19T08:35:56.058Z,13.97
2023-03-19T08:38:24.489Z,14.11
2023-03-19T08:40:53.004Z,14.24
2023-03-19T08:43:21.644Z,14.37
2023-03-19T08:45:50.660Z,14.50
2023-03-19T08:48:19.638Z,14.62
2023-03-19T08:50:53.668Z,14.73
2023-03-19T08:53:22.216Z,14.83
2023-03-19T08:56:01.473Z,14.89
2023-03-19T08:58:30.217Z,14.97
2023-03-19T09:01:10.963Z,15.05
2023-03-19T09:03:45.102Z,15.13
2023-03-19T09:06:15.615Z,15.15
2023-03-19T09:08:44.750Z,15.20
2023-03-19T09:11:14.551Z,15.26
2023-03-19T09:13:43.514Z,15.26
2023-03-19T09:16:12.051Z,15.29
2023-03-19T09:18:43.715Z,15.19
2023-03-19T09:21:12.142Z,15.16
2023-03-19T09:23:40.663Z,15.14
2023-03-19T09:26:09.202Z,15.16
2023-03-19T09:28:40.387Z,15.21
2023-03-19T09:31:12.118Z,15.31
2023-03-19T09:33:40.370Z,15.38
2023-03-19T09:36:09.602Z,15.43
2023-03-19T09:38:38.092Z,15.50
2023-03-19T09:41:42.088Z,15.59
2023-03-19T09:44:21.508Z,15.68
2023-03-19T09:47:37.788Z,15.78
2023-03-19T09:50:13.942Z,15.87
2023-03-19T09:52:51.275Z,15.93
2023-03-19T09:55:26.255Z,16.00
2023-03-19T09:57:57.744Z,16.05
2023-03-19T10:00:29.500Z,16.09
2023-03-19T10:03:42.449Z,16.16
2023-03-19T10:06:36.850Z,16.25
2023-03-19T10:09:36.497Z,16.34
2023-03-19T10:12:40.238Z,16.40
2023-03-19T10:15:23.748Z,16.45
2023-03-19T10:18:07.504Z,16.48
2023-03-19T10:20:53.617Z,16.54
2023-03-19T10:23:48.354Z,16.60
2023-03-19T10:26:20.621Z,16.66
2023-03-19T10:29:22.505Z,16.71
2023-03-19T10:32:00.758Z,16.73
2023-03-19T10:34:35.655Z,16.76
2023-03-19T10:37:16.556Z,16.71
2023-03-19T10:39:46.656Z,16.70
2023-03-19T10:42:52.327Z,16.71
2023-03-19T10:45:32.550Z,16.63
2023-03-19T10:48:04.036Z,16.61
2023-03-19T10:50:39.765Z,16.58
2023-03-19T10:53:14.033Z,16.57
2023-03-19T10:56:20.625Z,16.63
2023-03-19T10:59:22.714Z,16.69
2023-03-19T11:01:51.513Z,16.76
2023-03-19T11:04:23.400Z,16.76
2023-03-19T11:06:54.851Z,16.85
2023-03-19T11:09:36.554Z,16.88
2023-03-19T11:12:30.448Z,16.87
2023-03-19T11:14:59.996Z,16.90
2023-03-19T11:17:51.940Z,16.82
2023-03-19T11:20:29.194Z,16.78
2023-03-19T11:23:02.677Z,16.73
2023-03-19T11:25:42.882Z,16.68
2023-03-19T11:28:20.589Z,16.72
2023-03-19T11:31:22.582Z,16.77
2023-03-19T11:34:20.814Z,16.88
2023-03-19T11:37:08.632Z,16.99
2023-03-19T11:39:49.046Z,17.09
2023-03-19T11:42:48.038Z,17.13
2023-03-19T11:45:34.951Z,17.01
2023-03-19T11:48:07.393Z,17.03
2023-03-19T11:50:47.090Z,16.98
2023-03-19T11:53:53.576Z,17.00
2023-03-19T11:56:50.287Z,17.09
2023-03-19T11:59:59.373Z,16.99
2023-03-19T12:02:32.608Z,17.07
2023-03-19T12:05:13.697Z,17.15
2023-03-19T12:08:17.510Z,17.26
2023-03-19T12:11:39.935Z,17.42
2023-03-19T12:14:30.266Z,17.49
2023-03-19T12:17:08.563Z,17.57
2023-03-19T12:19:56.556Z,17.57
2023-03-19T12:23:30.504Z,17.54
2023-03-19T12:26:13.302Z,17.50
2023-03-19T12:29:05.048Z,17.33
2023-03-19T12:31:48.568Z,17.21
2023-03-19T12:34:20.044Z,17.09
2023-03-19T12:37:30.240Z,16.97
2023-03-19T12:40:39.852Z,16.86
2023-03-19T12:43:35.783Z,16.81
2023-03-19T12:46:15.033Z,16.71
2023-03-19T12:48:52.750Z,16.65
2023-03-19T12:51:27.533Z,16.55
2023-03-19T12:54:06.422Z,16.52
2023-03-19T12:56:48.480Z,16.40
2023-03-19T12:59:40.093Z,16.16
2023-03-19T13:02:42.525Z,16.10
2023-03-19T13:05:18.398Z,15.87
2023-03-19T13:08:20.622Z,15.80
2023-03-19T13:10:49.077Z,15.69
2023-03-19T13:13:43.042Z,15.68
2023-03-19T13:16:41.426Z,15.65
2023-03-19T13:19:21.761Z,15.66
2023-03-19T13:21:54.258Z,15.65
2023-03-19T13:24:43.330Z,15.62
2023-03-19T13:27:28.089Z,15.49
2023-03-19T13:30:18.879Z,15.40
2023-03-19T13:33:03.181Z,15.27
2023-03-19T13:35:53.975Z,15.18
2023-03-19T13:38:28.720Z,15.08
2023-03-19T13:41:00.343Z,14.96
2023-03-19T13:43:31.721Z,14.87
2023-03-19T13:46:12.126Z,14.80
2023-03-19T13:48:53.868Z,14.68
2023-03-19T13:51:22.245Z,14.56
2023-03-19T13:53:56.947Z,14.43
2023-03-19T13:56:30.437Z,14.32
2023-03-19T13:59:27.862Z,14.20
2023-03-19T14:01:57.391Z,14.04
2023-03-19T14:04:32.398Z,13.94
2023-03-19T14:07:20.051Z,13.88
2023-03-19T14:09:52.929Z,13.79
2023-03-19T14:12:21.345Z,13.72
2023-03-19T14:15:10.537Z,13.67
2023-03-19T14:17:41.936Z,13.66
2023-03-19T14:20:13.249Z,13.56
2023-03-19T14:22:42.383Z,13.54
2023-03-19T14:25:26.248Z,13.49
2023-03-19T14:28:02.284Z,13.49
2023-03-19T14:30:50.486Z,13.47
2023-03-19T14:33:48.193Z,13.46
2023-03-19T14:36:21.804Z,13.47
2023-03-19T14:38:54.273Z,13.48
2023-03-19T14:41:25.296Z,13.50
2023-03-19T14:44:08.155Z,13.51
2023-03-19T14:47:01.218Z,13.52
2023-03-19T14:49:29.703Z,13.50
2023-03-19T14:52:13.126Z,13.51
2023-03-19T14:54:57.225Z,13.51
2023-03-19T14:57:34.696Z,13.53
2023-03-19T15:00:06.585Z,13.51
2023-03-19T15:02:45.275Z,13.53
2023-03-19T15:05:23.900Z,13.53
2023-03-19T15:07:57.675Z,13.53
2023-03-19T15:10:30.933Z,13.53
2023-03-19T15:13:39.413Z,13.54
2023-03-19T15:16:14.080Z,13.55
2023-03-19T15:18:42.895Z,13.55
2023-03-19T15:21:11.641Z,13.56
2023-03-19T15:23:42.720Z,13.55
2023-03-19T15:26:11.984Z,13.59
2023-03-19T15:28:53.937Z,13.57
2023-03-19T15:31:33.886Z,13.57
2023-03-19T15:34:30.135Z,13.54
2023-03-19T15:37:15.934Z,13.51
2023-03-19T15:39:56.775Z,13.52
2023-03-19T15:42:28.011Z,13.51
2023-03-19T15:45:21.596Z,13.52
2023-03-19T15:48:25.875Z,13.51
2023-03-19T15:51:00.595Z,13.50
2023-03-19T15:53:32.604Z,13.50
2023-03-19T15:56:03.538Z,13.50
2023-03-19T15:58:39.588Z,13.51
2023-03-19T16:01:12.688Z,13.51
2023-03-19T16:04:07.156Z,13.51
2023-03-19T16:06:40.501Z,13.51
2023-03-19T16:09:35.195Z,13.49
2023-03-19T16:12:04.252Z,13.48
2023-03-19T16:14:43.669Z,13.45
2023-03-19T16:17:20.488Z,13.42
2023-03-19T16:20:04.120Z,13.40
2023-03-19T16:22:34.222Z,13.38
2023-03-19T16:25:06.890Z,13.35
2023-03-19T16:27:42.990Z,13.32
2023-03-19T16:30:25.734Z,13.31
2023-03-19T16:33:06.070Z,13.27
2023-03-19T16:35:36.733Z,13.24
2023-03-19T16:38:24.307Z,13.23
2023-03-19T16:41:24.349Z,13.21
2023-03-19T16:43:54.674Z,13.21
2023-03-19T16:46:29.263Z,13.20
2023-03-19T16:48:57.738Z,13.18
2023-03-19T16:51:25.865Z,13.16
2023-03-19T16:54:03.352Z,13.14
2023-03-19T16:56:32.253Z,13.14
2023-03-19T16:59:03.563Z,13.13
2023-03-19T17:01:32.275Z,13.08
2023-03-19T17:04:01.608Z,13.05
2023-03-19T17:06:35.775Z,13.01
2023-03-19T17:09:04.447Z,12.99
2023-03-19T17:11:40.153Z,12.99
2023-03-19T17:14:23.036Z,12.95
2023-03-19T17:16:52.169Z,12.94
2023-03-19T17:19:23.708Z,12.90
2023-03-19T17:21:55.649Z,12.87
2023-03-19T17:24:29.312Z,12.84
2023-03-19T17:27:00.710Z,12.81
2023-03-19T17:29:30.493Z,12.80
2023-03-19T17:32:02.034Z,12.78
2023-03-19T17:34:32.045Z,12.78
2023-03-19T17:37:03.479Z,12.77
2023-03-19T17:39:32.923Z,12.77
2023-03-19T17:42:02.061Z,12.76
2023-03-19T17:44:40.655Z,12.76
2023-03-19T18:20:40.886Z,12.40
2023-03-19T18:23:09.377Z,12.39
2023-03-19T18:25:37.773Z,12.35
2023-03-19T18:28:07.017Z,12.33
2023-03-19T18:30:37.916Z,12.32
2023-03-19T18:33:13.101Z,12.30
2023-03-19T18:35:44.979Z,12.29
2023-03-19T18:38:25.105Z,12.27
2023-03-19T18:40:55.116Z,12.27
2023-03-19T18:43:23.553Z,12.25
2023-03-19T18:45:54.691Z,12.25
2023-03-19T18:48:31.620Z,12.24
2023-03-19T18:51:00.158Z,12.23
2023-03-19T18:53:29.408Z,12.22
2023-03-19T18:55:58.131Z,12.20
2023-03-19T18:58:29.335Z,12.18
2023-03-19T19:00:57.566Z,12.14
2023-03-19T19:03:29.370Z,12.11
2023-03-19T19:05:58.373Z,12.07
2023-03-19T19:08:26.886Z,12.05
2023-03-19T19:11:03.276Z,12.02
2023-03-19T19:13:46.333Z,11.96
2023-03-19T19:16:32.387Z,11.90
2023-03-19T19:19:00.867Z,11.86
2023-03-19T19:21:29.293Z,11.82
2023-03-19T19:23:57.731Z,11.79
2023-03-19T19:26:29.225Z,11.75
2023-03-19T19:29:00.640Z,11.70
2023-03-19T19:31:32.344Z,11.67
2023-03-19T19:34:00.793Z,11.63
2023-03-19T19:36:29.619Z,11.59
2023-03-19T19:38:58.053Z,11.53
2023-03-19T19:41:27.608Z,11.52
2023-03-19T19:43:57.385Z,11.47
2023-03-19T19:46:26.156Z,11.46
2023-03-19T19:48:54.637Z,11.44
2023-03-19T19:51:26.259Z,11.39
2023-03-19T19:53:54.793Z,11.36
2023-03-19T19:56:26.680Z,11.31
2023-03-19T19:58:57.439Z,11.28
2023-03-19T20:01:27.378Z,11.24
2023-03-19T20:03:56.089Z,11.18
2023-03-19T20:06:36.663Z,11.13
2023-03-19T20:09:05.124Z,11.09
2023-03-19T20:11:33.522Z,11.06
2023-03-19T20:14:01.533Z,11.01
2023-03-19T20:16:30.036Z,11.01
2023-03-19T20:18:58.554Z,10.98
2023-03-19T20:21:28.981Z,10.97
2023-03-19T20:23:58.860Z,10.93
2023-03-19T20:26:27.795Z,10.91
2023-03-19T20:28:56.666Z,10.88
2023-03-19T20:31:31.101Z,10.85
2023-03-19T20:33:59.672Z,10.83
2023-03-19T20:36:28.044Z,10.79
2023-03-19T20:38:56.426Z,10.78
2023-03-19T20:41:27.749Z,10.74
2023-03-19T20:43:56.353Z,10.72
2023-03-19T20:46:25.054Z,10.71
2023-03-19T20:48:53.685Z,10.70
2023-03-19T20:51:26.087Z,10.67
2023-03-19T20:53:54.883Z,10.63
2023-03-19T20:56:24.669Z,10.60
2023-03-19T20:58:53.499Z,10.55
2023-03-19T21:01:22.014Z,10.49
2023-03-19T21:03:53.318Z,10.45
2023-03-19T21:06:26.036Z,10.42
2023-03-19T21:08:59.664Z,10.39
2023-03-19T21:11:43.101Z,10.35
2023-03-19T21:14:17.066Z,10.31
2023-03-19T21:16:45.532Z,10.26
2023-03-19T21:19:13.809Z,10.26
2023-03-19T21:21:42.867Z,10.26
2023-03-19T21:24:20.865Z,10.29
2023-03-19T21:26:50.084Z,10.31
2023-03-19T21:29:33.515Z,10.31
2023-03-19T21:32:01.693Z,10.32
2023-03-19T21:34:30.638Z,10.31
2023-03-19T21:36:59.037Z,10.33
2023-03-19T21:39:27.428Z,10.33
2023-03-19T21:41:57.130Z,10.32
2023-03-19T21:44:29.790Z,10.33
2023-03-19T21:46:58.350Z,10.32
2023-03-19T21:49:27.010Z,10.31
2023-03-19T21:51:57.110Z,10.29
2023-03-19T21:54:25.528Z,10.29
2023-03-19T21:56:53.929Z,10.30
2023-03-19T21:59:31.786Z,10.28
2023-03-19T22:02:00.686Z,10.26
2023-03-19T22:04:29.103Z,10.28
2023-03-19T22:06:57.594Z,10.28
2023-03-19T22:09:25.694Z,10.28
2023-03-19T22:11:53.858Z,10.29
2023-03-19T22:14:28.596Z,10.30
2023-03-19T22:16:57.932Z,10.32
2023-03-19T22:19:26.057Z,10.34
2023-03-19T22:21:55.221Z,10.36
2023-03-19T22:26:59.354Z,10.38
2023-03-19T22:29:27.897Z,10.41
2023-03-19T22:31:57.612Z,10.47
2023-03-19T22:34:29.054Z,10.49
2023-03-19T22:36:57.573Z,10.48
2023-03-19T22:39:26.052Z,10.48
2023-03-19T22:41:54.740Z,10.50
2023-03-19T22:44:30.969Z,10.51
2023-03-19T22:47:01.717Z,10.50
2023-03-19T22:49:31.525Z,10.52
2023-03-19T22:52:00.794Z,10.50
2023-03-19T22:54:28.845Z,10.50
2023-03-19T22:56:57.451Z,10.49
2023-03-19T22:59:25.900Z,10.50
2023-03-19T23:04:46.231Z,10.50
2023-03-19T23:07:15.069Z,10.48
2023-03-19T23:09:43.704Z,10.50
2023-03-19T23:12:12.149Z,10.49
2023-03-19T23:14:40.191Z,10.49
2023-03-19T23:17:18.508Z,10.52
2023-03-19T23:19:47.207Z,10.54
2023-03-19T23:22:17.799Z,10.56
2023-03-19T23:24:46.486Z,10.59
2023-03-19T23:27:26.787Z,10.60
2023-03-19T23:29:55.951Z,10.61
2023-03-19T23:32:24.370Z,10.63
2023-03-19T23:34:59.578Z,10.63
2023-03-19T23:37:29.569Z,10.65
2023-03-19T23:39:58.333Z,10.66
2023-03-19T23:42:30.442Z,10.68
2023-03-19T23:45:01.325Z,10.70
2023-03-19T23:47:31.103Z,10.69
2023-03-19T23:49:59.290Z,10.69
2023-03-19T23:52:27.846Z,10.70
2023-03-19T23:54:57.055Z,10.69
2023-03-19T23:57:26.689Z,10.69
2023-03-19T23:59:55.256Z,10.69
